METAR Data
IDs: Format: Raw Decoded Include TAF

Data at: 2225 UTC 01 Mar 2021

METAR for:KHCR (Heber City Muni, UT, US)
Text:KHCR 012215Z AUTO 32003KT 10SM CLR 06/M09 A3025 RMK AO2
Temperature: 6.0°C ( 43°F)
Dewpoint: -9.0°C ( 16°F) [RH = 33%]
Pressure (altimeter):30.25 inches Hg (1024.5 mb)
Winds:from the NW (320 degrees) at 3 MPH (3 knots; 1.5 m/s)
Visibility:10 or more sm (16+ km)
Ceiling:at least 12,000 feet AGL
Clouds:sky clear below 12,000 feet AGL
QC Flag:automated observation with no human augmentation